Marinicki — 9HWU9 — position and weather

sailwx.info

Track history (hours):
 
Tides and Currents Weather Stations Pressure Air Temp Water Temp Dewpoint Dewpoint Depression Visibility Wind Speed Wind Dir Waves Ship Positions

Marinicki

Last reported at 2017-Jul-24 19:15 UTC. Time now 2017-Jul-27 00:36 UTC.
Position N 37°45' E 016°41'.

Length 225 m; draft 12.3 m.

Type: Cargo ship. MMSI: 249650000.

Date/timePositionNaut miles runAvg speedWind from/ knotsBaromVisibWave heightAir tempDewpointWater temp
2017-Jul-24 19:15N 37°45' E 016°41'5 9.5
2017-Jul-24 18:47N 37°42' E 016°37'311.7
2017-Jul-24 18:29N 37°39' E 016°35'711.7
2017-Jul-24 17:56N 37°34' E 016°29'511.0
2017-Jul-24 17:28N 37°30' E 016°25'611.7
2017-Jul-24 16:56N 37°25' E 016°20'611.7
2017-Jul-24 16:23N 37°20' E 016°15'411.6
2017-Jul-24 16:00N 37°17' E 016°12'3411.4
2017-Jul-24 13:00N 36°50' E 015°45'612.0
2017-Jul-24 12:30N 36°45' E 015°41'611.8
2017-Jul-24 12:00N 36°40' E 015°37'611.7
2017-Jul-24 11:30N 36°35' E 015°32'611.2
2017-Jul-24 11:00N 36°31' E 015°27'711.2
2017-Jul-24 10:23N 36°26' E 015°22'411.1
2017-Jul-24 10:00N 36°22' E 015°19'510.5
2017-Jul-24 09:30N 36°19' E 015°15'611.9
2017-Jul-24 08:59N 36°19' E 015°07'611.6
2017-Jul-24 08:30N 36°19' E 014°60'611.2
2017-Jul-24 08:00N 36°19' E 014°53'611.2
2017-Jul-24 07:30N 36°19' E 014°46'611.2
2017-Jul-24 07:01N 36°19' E 014°39'611.1
2017-Jul-24 06:31N 36°19' E 014°32'510.7
2017-Jul-24 06:01N 36°20' E 014°26'611.0
2017-Jul-24 05:30N 36°22' E 014°19'611.2
2017-Jul-24 05:00N 36°24' E 014°13'611.1
2017-Jul-24 04:30N 36°26' E 014°06'611.1
2017-Jul-24 04:00N 36°27' E 013°60'611.2
2017-Jul-24 03:30N 36°29' E 013°53'611.2
2017-Jul-24 03:00N 36°31' E 013°46'611.2
2017-Jul-24 02:30N 36°33' E 013°40'611.2
2017-Jul-24 02:00N 36°34' E 013°33'611.1
2017-Jul-24 01:30N 36°36' E 013°26'611.0
2017-Jul-24 01:00N 36°38' E 013°20'511.0
2017-Jul-24 00:30N 36°40' E 013°14'510.8
2017-Jul-24 00:00N 36°42' E 013°07'510.7
2017-Jul-23 23:30N 36°44' E 013°01'510.7
2017-Jul-23 23:00N 36°45' E 012°55'510.7
2017-Jul-23 22:30N 36°47' E 012°48'510.8
2017-Jul-23 22:01N 36°49' E 012°42'510.9
2017-Jul-23 21:30N 36°50' E 012°35'611.1
2017-Jul-23 21:00N 36°52' E 012°29'511.0
2017-Jul-23 20:30N 36°54' E 012°22'510.9
2017-Jul-23 20:00N 36°56' E 012°16'510.8
2017-Jul-23 19:30N 36°57' E 012°09'510.6
2017-Jul-23 19:01N 36°59' E 012°03'510.8
2017-Jul-23 18:30N 37°01' E 011°57'510.9
2017-Jul-23 18:00N 37°04' E 011°51'510.7
2017-Jul-23 17:30N 37°06' E 011°45'511.0
2017-Jul-23 17:00N 37°09' E 011°39'511.1
2017-Jul-23 16:31N 37°12' E 011°33'610.9
2017-Jul-23 16:00N 37°14' E 011°27'511.0
2017-Jul-23 15:30N 37°17' E 011°21'510.9
2017-Jul-23 15:00N 37°20' E 011°15'510.7
2017-Jul-23 14:30N 37°22' E 011°09'510.9
2017-Jul-23 14:00N 37°25' E 011°03'611.0
2017-Jul-23 13:30N 37°27' E 010°57'1411.3
2017-Jul-23 12:17N 37°31' E 010°40'711.4
2017-Jul-23 11:40N 37°33' E 010°32'211.4
2017-Jul-23 11:28N 37°34' E 010°29'511.3
2017-Jul-23 11:00N 37°34' E 010°22'611.4
2017-Jul-23 10:30N 37°34' E 010°15'611.4
2017-Jul-23 10:00N 37°34' E 010°08'611.0
2017-Jul-23 09:30N 37°33' E 010°01'510.8
2017-Jul-23 09:00N 37°34' E 009°54'611.2
2017-Jul-23 08:28N 37°34' E 009°47'511.3
2017-Jul-23 08:00N 37°35' E 009°40'711.2
2017-Jul-23 07:23N 37°35' E 009°32'411.2
2017-Jul-23 07:00N 37°36' E 009°26'611.3
2017-Jul-23 06:30N 37°36' E 009°19'511.2
2017-Jul-23 06:00N 37°39' E 009°13'611.3
2017-Jul-23 05:30N 37°41' E 009°06'611.3
2017-Jul-23 05:00N 37°43' E 008°60'611.3
2017-Jul-23 04:30N 37°43' E 008°52'611.3
2017-Jul-23 03:58N 37°43' E 008°45'511.2
2017-Jul-23 03:30N 37°43' E 008°38'511.0
2017-Jul-23 03:00N 37°43' E 008°31'611.0
2017-Jul-23 02:30N 37°43' E 008°24'710.9
2017-Jul-23 01:53N 37°43' E 008°16'411.0
2017-Jul-23 01:30N 37°43' E 008°10'611.0
2017-Jul-23 01:00N 37°43' E 008°03'8711.3
2017-Jul-22 17:16N 37°32' E 006°14'511.1
2017-Jul-22 16:49N 37°31' E 006°08'411.2
2017-Jul-22 16:30N 37°31' E 006°04'611.2
2017-Jul-22 15:56N 37°30' E 005°56'711.2
2017-Jul-22 15:18N 37°29' E 005°47'411.3
2017-Jul-22 14:58N 37°29' E 005°42'1211.1
2017-Jul-22 13:54N 37°27' E 005°27'510.7
2017-Jul-22 13:24N 37°26' E 005°21'1310.7
2017-Jul-22 12:12N 37°24' E 005°05'310.5
2017-Jul-22 11:56N 37°24' E 005°01'510.5
2017-Jul-22 11:30N 37°23' E 004°56'510.5
2017-Jul-22 11:00N 37°23' E 004°49'610.6
2017-Jul-22 10:23N 37°22' E 004°41'410.8
2017-Jul-22 10:00N 37°21' E 004°36'510.8
2017-Jul-22 09:30N 37°21' E 004°29'510.9
2017-Jul-22 09:00N 37°20' E 004°22'611.1
2017-Jul-22 08:29N 37°19' E 004°15'511.0
2017-Jul-22 08:00N 37°18' E 004°08'611.0
2017-Jul-22 07:30N 37°18' E 004°01'510.8
2017-Jul-22 07:00N 37°17' E 003°55'510.8
2017-Jul-22 06:30N 37°16' E 003°48'510.7
2017-Jul-22 06:00N 37°15' E 003°41'510.2
2017-Jul-22 05:30N 37°15' E 003°35'510.5
2017-Jul-22 05:00N 37°14' E 003°28'1010.9
2017-Jul-22 04:03N 37°13' E 003°16'010.7
2017-Jul-22 04:00N 37°13' E 003°15'510.6
2017-Jul-22 03:30N 37°12' E 003°08'510.8
2017-Jul-22 03:00N 37°11' E 003°02'510.8
2017-Jul-22 02:30N 37°10' E 002°55'510.7
2017-Jul-22 02:00N 37°09' E 002°48'510.6
2017-Jul-22 01:30N 37°08' E 002°42'510.6
2017-Jul-22 01:00N 37°08' E 002°35'510.6
2017-Jul-22 00:30N 37°07' E 002°28'510.6
2017-Jul-22 00:00N 37°06' E 002°22'1010.5
2017-Jul-21 23:05N 37°05' E 002°10'110.4
2017-Jul-21 22:59N 37°05' E 002°09'510.4
2017-Jul-21 22:30N 37°04' E 002°02'510.4
2017-Jul-21 22:00N 37°03' E 001°56'610.3
2017-Jul-21 21:27N 37°02' E 001°49'510.3
2017-Jul-21 21:00N 37°01' E 001°43'510.4
2017-Jul-21 20:30N 37°01' E 001°37'1610.4
2017-Jul-21 19:00N 36°57' E 001°18'810.8
2017-Jul-21 18:15N 36°55' E 001°08'310.9
2017-Jul-21 18:00N 36°55' E 001°05'610.9
2017-Jul-21 17:30N 36°53' E 000°58'611.1
2017-Jul-21 16:58N 36°52' E 000°51'711.0
2017-Jul-21 16:22N 36°51' E 000°43'410.9
2017-Jul-21 16:00N 36°50' E 000°38'510.8
2017-Jul-21 15:30N 36°48' E 000°31'510.7
2017-Jul-21 15:01N 36°47' E 000°25'510.8
2017-Jul-21 14:31N 36°45' E 000°19'610.6
2017-Jul-21 13:59N 36°44' E 000°12'510.5
2017-Jul-21 13:30N 36°42' E 000°06'5410.5
2017-Jul-21 08:22N 36°32' W 000°60'4 9.8
2017-Jul-21 08:00N 36°31' W 001°04'13 9.6
2017-Jul-21 06:41N 36°28' W 001°20'3 9.7
2017-Jul-21 06:23N 36°28' W 001°23'2810.4
2017-Jul-21 03:43N 36°24' W 001°57'  
2017-Jul-18 19:24N 34°36' W 009°44'410.9
2017-Jul-18 19:01N 34°34' W 009°49'611.1
2017-Jul-18 18:30N 34°31' W 009°55'511.0
2017-Jul-18 18:00N 34°29' W 010°00'510.9
2017-Jul-18 17:30N 34°26' W 010°06'510.9
2017-Jul-18 17:00N 34°24' W 010°12'810.9
2017-Jul-18 16:18N 34°20' W 010°21'311.1
2017-Jul-18 16:00N 34°19' W 010°24'611.2
2017-Jul-18 15:27N 34°16' W 010°31'711.0
2017-Jul-18 14:50N 34°13' W 010°38'910.7
2017-Jul-18 14:01N 34°09' W 010°48'610.8
2017-Jul-18 13:27N 34°07' W 010°54'510.7
2017-Jul-18 12:57N 34°04' W 011°00'510.6
2017-Jul-18 12:30N 34°02' W 011°05'610.6
2017-Jul-18 11:59N 33°60' W 011°11'510.5
2017-Jul-18 11:30N 33°58' W 011°17'510.5
2017-Jul-18 10:59N 33°55' W 011°23'510.4
2017-Jul-18 10:29N 33°53' W 011°28'610.4
2017-Jul-18 09:56N 33°50' W 011°35'410.6
2017-Jul-18 09:30N 33°48' W 011°39'510.6
2017-Jul-18 09:00N 33°46' W 011°45'510.5
2017-Jul-18 08:30N 33°44' W 011°51'510.5
2017-Jul-18 08:01N 33°41' W 011°56'510.6
2017-Jul-18 07:30N 33°39' W 012°02'510.6
2017-Jul-18 07:00N 33°37' W 012°08'510.5
2017-Jul-18 06:30N 33°34' W 012°14'510.6
2017-Jul-18 06:00N 33°32' W 012°19'510.5
2017-Jul-18 05:31N 33°30' W 012°25'510.4
2017-Jul-18 05:00N 33°27' W 012°30'510.5
2017-Jul-18 04:30N 33°25' W 012°36'510.5
2017-Jul-18 04:00N 33°23' W 012°42'510.5
2017-Jul-18 03:30N 33°20' W 012°47'510.4
2017-Jul-18 03:00N 33°18' W 012°53'510.4
2017-Jul-18 02:31N 33°16' W 012°58'510.4
2017-Jul-18 02:00N 33°13' W 013°04'510.3
2017-Jul-18 01:30N 33°11' W 013°10'510.6
2017-Jul-18 01:01N 33°09' W 013°15'610.7
2017-Jul-18 00:29N 33°06' W 013°21'510.7
2017-Jul-18 00:00N 33°04' W 013°27'510.6
2017-Jul-17 23:31N 33°02' W 013°32'610.8
2017-Jul-17 23:00N 32°59' W 013°38'510.6
2017-Jul-17 22:30N 32°57' W 013°44'510.7
2017-Jul-17 22:00N 32°54' W 013°50'510.7
2017-Jul-17 21:30N 32°52' W 013°55'510.8
2017-Jul-17 21:00N 32°50' W 014°01'610.8
2017-Jul-17 20:29N 32°47' W 014°07'510.9
2017-Jul-17 20:00N 32°45' W 014°13'510.7
2017-Jul-17 19:30N 32°42' W 014°18'510.8
2017-Jul-17 19:01N 32°40' W 014°24'510.7
2017-Jul-17 18:30N 32°38' W 014°30'510.6
2017-Jul-17 18:00N 32°35' W 014°35'510.5
2017-Jul-17 17:31N 32°33' W 014°41'510.5
2017-Jul-17 17:00N 32°31' W 014°46'510.4
2017-Jul-17 16:30N 32°28' W 014°52'510.3
2017-Jul-17 16:00N 32°26' W 014°58'510.2
2017-Jul-17 15:31N 32°24' W 015°03'510.7
2017-Jul-17 15:00N 32°21' W 015°09'510.2
2017-Jul-17 14:30N 32°19' W 015°14'510.4
2017-Jul-17 14:00N 32°17' W 015°19'510.4
2017-Jul-17 13:30N 32°15' W 015°25'510.2
2017-Jul-17 13:01N 32°13' W 015°31'510.4
2017-Jul-17 12:31N 32°10' W 015°36'510.3
2017-Jul-17 12:00N 32°08' W 015°42'510.5
2017-Jul-17 11:31N 32°06' W 015°47'610.6
2017-Jul-17 10:56N 32°03' W 015°53'510.5
2017-Jul-17 10:30N 32°01' W 015°58'1010.5
2017-Jul-17 09:32N 31°57' W 016°09'010.6
2017-Jul-17 09:30N 31°57' W 016°10'610.7
2017-Jul-17 08:56N 31°55' W 016°16'510.8
2017-Jul-17 08:30N 31°53' W 016°21'510.8
2017-Jul-17 08:00N 31°51' W 016°27'610.7
2017-Jul-17 07:25N 31°49' W 016°34'410.6
2017-Jul-17 07:00N 31°48' W 016°39'510.6
2017-Jul-17 06:30N 31°46' W 016°45'510.6
2017-Jul-17 06:01N 31°44' W 016°51'510.7
2017-Jul-17 05:30N 31°42' W 016°57'510.6
2017-Jul-17 05:00N 31°40' W 017°03'510.7
2017-Jul-17 04:30N 31°38' W 017°09'510.8
2017-Jul-17 04:01N 31°36' W 017°15'510.8
2017-Jul-17 03:30N 31°35' W 017°20'510.9
2017-Jul-17 03:00N 31°33' W 017°27'611.2
2017-Jul-17 02:30N 31°31' W 017°33'611.2
2017-Jul-17 02:00N 31°29' W 017°39'811.2
2017-Jul-17 01:14N 31°26' W 017°48'3410.8
2017-Jul-16 22:03N 31°14' W 018°26'110.1
2017-Jul-16 22:00N 31°14' W 018°27'610.2
2017-Jul-16 21:27N 31°12' W 018°33'410.1
2017-Jul-16 21:01N 31°10' W 018°38'510.1
2017-Jul-16 20:30N 31°09' W 018°43'1110.2
2017-Jul-16 19:26N 31°05' W 018°55'  
Track history (hours):
 
Tides and Currents Weather Stations Pressure Air Temp Water Temp Dewpoint Dewpoint Depression Visibility Wind Speed Wind Dir Waves Ship Positions

Marinicki

Last reported at 2017-Jul-24 19:15 UTC. Time now 2017-Jul-27 00:36 UTC.
Position N 37°45' E 016°41'.

Length 225 m; draft 12.3 m.

Type: Cargo ship. MMSI: 249650000.

Date/timePositionNaut miles runAvg speedWind from/ knotsBaromVisibWave heightAir tempDewpointWater temp
2017-Jul-24 19:15N 37°45' E 016°41'5 9.5
2017-Jul-24 18:47N 37°42' E 016°37'311.7
2017-Jul-24 18:29N 37°39' E 016°35'711.7
2017-Jul-24 17:56N 37°34' E 016°29'511.0
2017-Jul-24 17:28N 37°30' E 016°25'611.7
2017-Jul-24 16:56N 37°25' E 016°20'611.7
2017-Jul-24 16:23N 37°20' E 016°15'411.6
2017-Jul-24 16:00N 37°17' E 016°12'3411.4
2017-Jul-24 13:00N 36°50' E 015°45'612.0
2017-Jul-24 12:30N 36°45' E 015°41'611.8
2017-Jul-24 12:00N 36°40' E 015°37'611.7
2017-Jul-24 11:30N 36°35' E 015°32'611.2
2017-Jul-24 11:00N 36°31' E 015°27'711.2
2017-Jul-24 10:23N 36°26' E 015°22'411.1
2017-Jul-24 10:00N 36°22' E 015°19'510.5
2017-Jul-24 09:30N 36°19' E 015°15'611.9
2017-Jul-24 08:59N 36°19' E 015°07'611.6
2017-Jul-24 08:30N 36°19' E 014°60'611.2
2017-Jul-24 08:00N 36°19' E 014°53'611.2
2017-Jul-24 07:30N 36°19' E 014°46'611.2
2017-Jul-24 07:01N 36°19' E 014°39'611.1
2017-Jul-24 06:31N 36°19' E 014°32'510.7
2017-Jul-24 06:01N 36°20' E 014°26'611.0
2017-Jul-24 05:30N 36°22' E 014°19'611.2
2017-Jul-24 05:00N 36°24' E 014°13'611.1
2017-Jul-24 04:30N 36°26' E 014°06'611.1
2017-Jul-24 04:00N 36°27' E 013°60'611.2
2017-Jul-24 03:30N 36°29' E 013°53'611.2
2017-Jul-24 03:00N 36°31' E 013°46'611.2
2017-Jul-24 02:30N 36°33' E 013°40'611.2
2017-Jul-24 02:00N 36°34' E 013°33'611.1
2017-Jul-24 01:30N 36°36' E 013°26'611.0
2017-Jul-24 01:00N 36°38' E 013°20'511.0
2017-Jul-24 00:30N 36°40' E 013°14'510.8
2017-Jul-24 00:00N 36°42' E 013°07'510.7
2017-Jul-23 23:30N 36°44' E 013°01'510.7
2017-Jul-23 23:00N 36°45' E 012°55'510.7
2017-Jul-23 22:30N 36°47' E 012°48'510.8
2017-Jul-23 22:01N 36°49' E 012°42'510.9
2017-Jul-23 21:30N 36°50' E 012°35'611.1
2017-Jul-23 21:00N 36°52' E 012°29'511.0
2017-Jul-23 20:30N 36°54' E 012°22'510.9
2017-Jul-23 20:00N 36°56' E 012°16'510.8
2017-Jul-23 19:30N 36°57' E 012°09'510.6
2017-Jul-23 19:01N 36°59' E 012°03'510.8
2017-Jul-23 18:30N 37°01' E 011°57'510.9
2017-Jul-23 18:00N 37°04' E 011°51'510.7
2017-Jul-23 17:30N 37°06' E 011°45'511.0
2017-Jul-23 17:00N 37°09' E 011°39'511.1
2017-Jul-23 16:31N 37°12' E 011°33'610.9
2017-Jul-23 16:00N 37°14' E 011°27'511.0
2017-Jul-23 15:30N 37°17' E 011°21'510.9
2017-Jul-23 15:00N 37°20' E 011°15'510.7
2017-Jul-23 14:30N 37°22' E 011°09'510.9
2017-Jul-23 14:00N 37°25' E 011°03'611.0
2017-Jul-23 13:30N 37°27' E 010°57'1411.3
2017-Jul-23 12:17N 37°31' E 010°40'711.4
2017-Jul-23 11:40N 37°33' E 010°32'211.4
2017-Jul-23 11:28N 37°34' E 010°29'511.3
2017-Jul-23 11:00N 37°34' E 010°22'611.4
2017-Jul-23 10:30N 37°34' E 010°15'611.4
2017-Jul-23 10:00N 37°34' E 010°08'611.0
2017-Jul-23 09:30N 37°33' E 010°01'510.8
2017-Jul-23 09:00N 37°34' E 009°54'611.2
2017-Jul-23 08:28N 37°34' E 009°47'511.3
2017-Jul-23 08:00N 37°35' E 009°40'711.2
2017-Jul-23 07:23N 37°35' E 009°32'411.2
2017-Jul-23 07:00N 37°36' E 009°26'611.3
2017-Jul-23 06:30N 37°36' E 009°19'511.2
2017-Jul-23 06:00N 37°39' E 009°13'611.3
2017-Jul-23 05:30N 37°41' E 009°06'611.3
2017-Jul-23 05:00N 37°43' E 008°60'611.3
2017-Jul-23 04:30N 37°43' E 008°52'611.3
2017-Jul-23 03:58N 37°43' E 008°45'511.2
2017-Jul-23 03:30N 37°43' E 008°38'511.0
2017-Jul-23 03:00N 37°43' E 008°31'611.0
2017-Jul-23 02:30N 37°43' E 008°24'710.9
2017-Jul-23 01:53N 37°43' E 008°16'411.0
2017-Jul-23 01:30N 37°43' E 008°10'611.0
2017-Jul-23 01:00N 37°43' E 008°03'8711.3
2017-Jul-22 17:16N 37°32' E 006°14'511.1
2017-Jul-22 16:49N 37°31' E 006°08'411.2
2017-Jul-22 16:30N 37°31' E 006°04'611.2
2017-Jul-22 15:56N 37°30' E 005°56'711.2
2017-Jul-22 15:18N 37°29' E 005°47'411.3
2017-Jul-22 14:58N 37°29' E 005°42'1211.1
2017-Jul-22 13:54N 37°27' E 005°27'510.7
2017-Jul-22 13:24N 37°26' E 005°21'1310.7
2017-Jul-22 12:12N 37°24' E 005°05'310.5
2017-Jul-22 11:56N 37°24' E 005°01'510.5
2017-Jul-22 11:30N 37°23' E 004°56'510.5
2017-Jul-22 11:00N 37°23' E 004°49'610.6
2017-Jul-22 10:23N 37°22' E 004°41'410.8
2017-Jul-22 10:00N 37°21' E 004°36'510.8
2017-Jul-22 09:30N 37°21' E 004°29'510.9
2017-Jul-22 09:00N 37°20' E 004°22'611.1
2017-Jul-22 08:29N 37°19' E 004°15'511.0
2017-Jul-22 08:00N 37°18' E 004°08'611.0
2017-Jul-22 07:30N 37°18' E 004°01'510.8
2017-Jul-22 07:00N 37°17' E 003°55'510.8
2017-Jul-22 06:30N 37°16' E 003°48'510.7
2017-Jul-22 06:00N 37°15' E 003°41'510.2
2017-Jul-22 05:30N 37°15' E 003°35'510.5
2017-Jul-22 05:00N 37°14' E 003°28'1010.9
2017-Jul-22 04:03N 37°13' E 003°16'010.7
2017-Jul-22 04:00N 37°13' E 003°15'510.6
2017-Jul-22 03:30N 37°12' E 003°08'510.8
2017-Jul-22 03:00N 37°11' E 003°02'510.8
2017-Jul-22 02:30N 37°10' E 002°55'510.7
2017-Jul-22 02:00N 37°09' E 002°48'510.6
2017-Jul-22 01:30N 37°08' E 002°42'510.6
2017-Jul-22 01:00N 37°08' E 002°35'510.6
2017-Jul-22 00:30N 37°07' E 002°28'510.6
2017-Jul-22 00:00N 37°06' E 002°22'1010.5
2017-Jul-21 23:05N 37°05' E 002°10'110.4
2017-Jul-21 22:59N 37°05' E 002°09'510.4
2017-Jul-21 22:30N 37°04' E 002°02'510.4
2017-Jul-21 22:00N 37°03' E 001°56'610.3
2017-Jul-21 21:27N 37°02' E 001°49'510.3
2017-Jul-21 21:00N 37°01' E 001°43'510.4
2017-Jul-21 20:30N 37°01' E 001°37'1610.4
2017-Jul-21 19:00N 36°57' E 001°18'810.8
2017-Jul-21 18:15N 36°55' E 001°08'310.9
2017-Jul-21 18:00N 36°55' E 001°05'610.9
2017-Jul-21 17:30N 36°53' E 000°58'611.1
2017-Jul-21 16:58N 36°52' E 000°51'711.0
2017-Jul-21 16:22N 36°51' E 000°43'410.9
2017-Jul-21 16:00N 36°50' E 000°38'510.8
2017-Jul-21 15:30N 36°48' E 000°31'510.7
2017-Jul-21 15:01N 36°47' E 000°25'510.8
2017-Jul-21 14:31N 36°45' E 000°19'610.6
2017-Jul-21 13:59N 36°44' E 000°12'510.5
2017-Jul-21 13:30N 36°42' E 000°06'5410.5
2017-Jul-21 08:22N 36°32' W 000°60'4 9.8
2017-Jul-21 08:00N 36°31' W 001°04'13 9.6
2017-Jul-21 06:41N 36°28' W 001°20'3 9.7
2017-Jul-21 06:23N 36°28' W 001°23'2810.4
2017-Jul-21 03:43N 36°24' W 001°57'  
2017-Jul-18 19:24N 34°36' W 009°44'410.9
2017-Jul-18 19:01N 34°34' W 009°49'611.1
2017-Jul-18 18:30N 34°31' W 009°55'511.0
2017-Jul-18 18:00N 34°29' W 010°00'510.9
2017-Jul-18 17:30N 34°26' W 010°06'510.9
2017-Jul-18 17:00N 34°24' W 010°12'810.9
2017-Jul-18 16:18N 34°20' W 010°21'311.1
2017-Jul-18 16:00N 34°19' W 010°24'611.2
2017-Jul-18 15:27N 34°16' W 010°31'711.0
2017-Jul-18 14:50N 34°13' W 010°38'910.7
2017-Jul-18 14:01N 34°09' W 010°48'610.8
2017-Jul-18 13:27N 34°07' W 010°54'510.7
2017-Jul-18 12:57N 34°04' W 011°00'510.6
2017-Jul-18 12:30N 34°02' W 011°05'610.6
2017-Jul-18 11:59N 33°60' W 011°11'510.5
2017-Jul-18 11:30N 33°58' W 011°17'510.5
2017-Jul-18 10:59N 33°55' W 011°23'510.4
2017-Jul-18 10:29N 33°53' W 011°28'610.4
2017-Jul-18 09:56N 33°50' W 011°35'410.6
2017-Jul-18 09:30N 33°48' W 011°39'510.6
2017-Jul-18 09:00N 33°46' W 011°45'510.5
2017-Jul-18 08:30N 33°44' W 011°51'510.5
2017-Jul-18 08:01N 33°41' W 011°56'510.6
2017-Jul-18 07:30N 33°39' W 012°02'510.6
2017-Jul-18 07:00N 33°37' W 012°08'510.5
2017-Jul-18 06:30N 33°34' W 012°14'510.6
2017-Jul-18 06:00N 33°32' W 012°19'510.5
2017-Jul-18 05:31N 33°30' W 012°25'510.4
2017-Jul-18 05:00N 33°27' W 012°30'510.5
2017-Jul-18 04:30N 33°25' W 012°36'510.5
2017-Jul-18 04:00N 33°23' W 012°42'510.5
2017-Jul-18 03:30N 33°20' W 012°47'510.4
2017-Jul-18 03:00N 33°18' W 012°53'510.4
2017-Jul-18 02:31N 33°16' W 012°58'510.4
2017-Jul-18 02:00N 33°13' W 013°04'510.3
2017-Jul-18 01:30N 33°11' W 013°10'510.6
2017-Jul-18 01:01N 33°09' W 013°15'610.7
2017-Jul-18 00:29N 33°06' W 013°21'510.7
2017-Jul-18 00:00N 33°04' W 013°27'510.6
2017-Jul-17 23:31N 33°02' W 013°32'610.8
2017-Jul-17 23:00N 32°59' W 013°38'510.6
2017-Jul-17 22:30N 32°57' W 013°44'510.7
2017-Jul-17 22:00N 32°54' W 013°50'510.7
2017-Jul-17 21:30N 32°52' W 013°55'510.8
2017-Jul-17 21:00N 32°50' W 014°01'610.8
2017-Jul-17 20:29N 32°47' W 014°07'510.9
2017-Jul-17 20:00N 32°45' W 014°13'510.7
2017-Jul-17 19:30N 32°42' W 014°18'510.8
2017-Jul-17 19:01N 32°40' W 014°24'510.7
2017-Jul-17 18:30N 32°38' W 014°30'510.6
2017-Jul-17 18:00N 32°35' W 014°35'510.5
2017-Jul-17 17:31N 32°33' W 014°41'510.5
2017-Jul-17 17:00N 32°31' W 014°46'510.4
2017-Jul-17 16:30N 32°28' W 014°52'510.3
2017-Jul-17 16:00N 32°26' W 014°58'510.2
2017-Jul-17 15:31N 32°24' W 015°03'510.7
2017-Jul-17 15:00N 32°21' W 015°09'510.2
2017-Jul-17 14:30N 32°19' W 015°14'510.4
2017-Jul-17 14:00N 32°17' W 015°19'510.4
2017-Jul-17 13:30N 32°15' W 015°25'510.2
2017-Jul-17 13:01N 32°13' W 015°31'510.4
2017-Jul-17 12:31N 32°10' W 015°36'510.3
2017-Jul-17 12:00N 32°08' W 015°42'510.5
2017-Jul-17 11:31N 32°06' W 015°47'610.6
2017-Jul-17 10:56N 32°03' W 015°53'510.5
2017-Jul-17 10:30N 32°01' W 015°58'1010.5
2017-Jul-17 09:32N 31°57' W 016°09'010.6
2017-Jul-17 09:30N 31°57' W 016°10'610.7
2017-Jul-17 08:56N 31°55' W 016°16'510.8
2017-Jul-17 08:30N 31°53' W 016°21'510.8
2017-Jul-17 08:00N 31°51' W 016°27'610.7
2017-Jul-17 07:25N 31°49' W 016°34'410.6
2017-Jul-17 07:00N 31°48' W 016°39'510.6
2017-Jul-17 06:30N 31°46' W 016°45'510.6
2017-Jul-17 06:01N 31°44' W 016°51'510.7
2017-Jul-17 05:30N 31°42' W 016°57'510.6
2017-Jul-17 05:00N 31°40' W 017°03'510.7
2017-Jul-17 04:30N 31°38' W 017°09'510.8
2017-Jul-17 04:01N 31°36' W 017°15'510.8
2017-Jul-17 03:30N 31°35' W 017°20'510.9
2017-Jul-17 03:00N 31°33' W 017°27'611.2
2017-Jul-17 02:30N 31°31' W 017°33'611.2
2017-Jul-17 02:00N 31°29' W 017°39'811.2
2017-Jul-17 01:14N 31°26' W 017°48'3410.8
2017-Jul-16 22:03N 31°14' W 018°26'110.1
2017-Jul-16 22:00N 31°14' W 018°27'610.2
2017-Jul-16 21:27N 31°12' W 018°33'410.1
2017-Jul-16 21:01N 31°10' W 018°38'510.1
2017-Jul-16 20:30N 31°09' W 018°43'1110.2
2017-Jul-16 19:26N 31°05' W 018°55'  

Dump ship's entire track history